Time,TemperatureF,DewpointF,PressureIn,WindDirection,WindDirectionDegrees,WindSpeedMPH,WindSpeedGustMPH,Humidity,HourlyPrecipIn,Conditions,Clouds,dailyrainin,SoftwareType,DateUTC
2013-07-18 08:00:00,80.7,77.2,30.11,ENE,68,2.0,8.0,89,0.07,,---,0.07,VWS V14.01,2013-07-18 13:00:00,
2013-07-18 09:48:00,80.7,77.2,30.11,ENE,68,2.0,8.0,89,0.07,,---,0.07,VWS V14.01,2013-07-18 14:48:00,
2013-07-18 09:53:00,83.0,78.0,30.12,NE,53,7.0,11.0,85,0.11,,---,0.13,VWS V14.01,2013-07-18 14:53:00,
2013-07-18 09:58:00,82.9,77.9,30.12,NE,49,4.0,11.0,85,0.11,,---,0.13,VWS V14.01,2013-07-18 14:58:00,
2013-07-18 10:00:00,83.0,78.0,30.13,NE,51,5.0,5.0,85,0.00,,---,0.13,VWS V14.01,2013-07-18 15:00:00,
2013-07-18 10:01:00,83.0,78.0,30.13,NE,51,5.0,5.0,85,0.00,,---,0.00,VWS V14.01,2013-07-18 15:01:00,
2013-07-18 10:34:00,83.0,78.0,30.13,NE,51,5.0,5.0,85,0.00,,---,0.00,VWS V14.01,2013-07-18 15:34:00,
2013-07-18 10:39:00,83.6,77.9,30.12,ENE,57,4.0,10.0,83,0.00,,---,0.00,VWS V14.01,2013-07-18 15:39:00,
2013-07-18 10:44:00,83.9,78.2,30.12,ENE,58,11.0,13.0,83,0.00,,---,0.00,VWS V14.01,2013-07-18 15:44:00,
2013-07-18 10:49:00,84.0,77.9,30.13,ENE,57,7.0,13.0,82,0.00,,---,0.00,VWS V14.01,2013-07-18 15:49:00,
2013-07-18 10:54:00,84.1,78.4,30.13,ESE,102,6.0,13.0,83,0.00,,---,0.00,VWS V14.01,2013-07-18 15:54:00,
2013-07-18 10:59:00,84.4,78.7,30.13,East,82,8.0,13.0,83,0.00,,---,0.00,VWS V14.01,2013-07-18 15:59:00,
2013-07-18 11:04:00,84.5,78.4,30.14,ENE,63,5.0,11.0,82,0.00,,---,0.00,VWS V14.01,2013-07-18 16:04:00,
2013-07-18 11:09:00,84.6,77.8,30.14,ENE,57,7.0,11.0,80,0.00,,---,0.00,VWS V14.01,2013-07-18 16:09:00,
2013-07-18 11:15:00,84.5,78.0,30.14,ENE,74,8.0,12.0,81,0.00,,---,0.00,VWS V14.01,2013-07-18 16:15:00,
2013-07-18 11:20:00,84.8,77.9,30.13,ENE,70,7.0,12.0,80,0.00,,---,0.00,VWS V14.01,2013-07-18 16:20:00,
2013-07-18 11:25:00,85.1,78.6,30.14,NE,56,8.0,12.0,81,0.00,,---,0.00,VWS V14.01,2013-07-18 16:25:00,
2013-07-18 11:30:00,85.0,78.9,30.13,East,90,5.0,12.0,82,0.00,,---,0.00,VWS V14.01,2013-07-18 16:30:00,
2013-07-18 11:35:00,84.7,77.5,30.13,East,96,4.0,12.0,79,0.00,,---,0.00,VWS V14.01,2013-07-18 16:35:00,
2013-07-18 11:40:00,84.5,77.3,30.13,ESE,103,2.0,12.0,79,0.00,,---,0.00,VWS V14.01,2013-07-18 16:40:00,
2013-07-18 11:45:00,84.9,76.5,30.13,SE,124,7.0,12.0,76,0.00,,---,0.00,VWS V14.01,2013-07-18 16:45:00,
2013-07-18 11:50:00,85.3,75.7,30.13,ESE,104,4.0,14.0,73,0.00,,---,0.00,VWS V14.01,2013-07-18 16:50:00,
2013-07-18 11:55:00,85.7,77.3,30.13,East,94,9.0,14.0,76,0.00,,---,0.00,VWS V14.01,2013-07-18 16:55:00,
2013-07-18 12:00:00,85.9,77.1,30.13,East,85,9.0,14.0,75,0.00,,---,0.00,VWS V14.01,2013-07-18 17:00:00,
2013-07-18 12:05:00,86.0,77.6,30.12,ENE,61,7.0,11.0,76,0.00,,---,0.00,VWS V14.01,2013-07-18 17:05:00,
2013-07-18 12:10:00,86.1,76.8,30.12,ESE,104,10.0,12.0,74,0.00,,---,0.00,VWS V14.01,2013-07-18 17:10:00,
2013-07-18 12:15:00,86.1,76.8,30.12,ENE,72,9.0,12.0,74,0.00,,---,0.00,VWS V14.01,2013-07-18 17:15:00,
2013-07-18 12:20:00,86.2,77.3,30.12,ESE,105,8.0,13.0,75,0.00,,---,0.00,VWS V14.01,2013-07-18 17:20:00,
2013-07-18 12:25:00,86.2,77.3,30.12,East,89,9.0,15.0,75,0.00,,---,0.00,VWS V14.01,2013-07-18 17:25:00,
2013-07-18 12:30:00,86.3,78.2,30.12,East,98,6.0,15.0,77,0.00,,---,0.00,VWS V14.01,2013-07-18 17:30:00,
2013-07-18 12:35:00,86.3,77.4,30.12,ENE,61,5.0,15.0,75,0.00,,---,0.00,VWS V14.01,2013-07-18 17:35:00,
2013-07-18 12:40:00,85.4,76.2,30.12,ENE,71,15.0,19.0,74,0.00,,---,0.00,VWS V14.01,2013-07-18 17:40:00,
2013-07-18 12:45:00,83.3,75.3,30.12,ENE,75,18.0,20.0,77,0.00,,---,0.00,VWS V14.01,2013-07-18 17:45:00,
2013-07-18 12:50:00,80.9,74.5,30.12,ENE,57,7.0,20.0,81,0.04,,---,0.04,VWS V14.01,2013-07-18 17:50:00,
2013-07-18 12:55:00,80.1,74.8,30.12,ENE,75,4.0,20.0,84,0.05,,---,0.05,VWS V14.01,2013-07-18 17:55:00,
2013-07-18 13:01:00,80.5,75.6,30.11,ENE,58,4.0,20.0,85,0.05,,---,0.05,VWS V14.01,2013-07-18 18:01:00,
2013-07-18 13:06:00,81.8,76.5,30.11,East,79,7.0,7.0,84,0.05,,---,0.05,VWS V14.01,2013-07-18 18:06:00,
2013-07-18 13:11:00,82.0,76.3,30.12,ENE,65,15.0,15.0,83,0.05,,---,0.05,VWS V14.01,2013-07-18 18:11:00,
2013-07-18 13:16:00,80.3,75.7,30.11,ENE,67,8.0,15.0,86,0.12,,---,0.12,VWS V14.01,2013-07-18 18:16:00,
2013-07-18 13:21:00,79.4,75.5,30.11,ENE,69,9.0,15.0,88,0.13,,---,0.13,VWS V14.01,2013-07-18 18:21:00,
2013-07-18 13:26:00,79.5,75.6,30.11,ENE,68,4.0,15.0,88,0.13,,---,0.13,VWS V14.01,2013-07-18 18:26:00,
2013-07-18 13:31:00,80.0,76.1,30.11,ENE,58,5.0,15.0,88,0.13,,---,0.13,VWS V14.01,2013-07-18 18:31:00,
2013-07-18 13:36:00,80.3,76.4,30.10,ENE,59,2.0,15.0,88,0.13,,---,0.13,VWS V14.01,2013-07-18 18:36:00,
2013-07-18 13:42:00,81.1,77.6,30.10,ENE,57,2.0,15.0,89,0.13,,---,0.13,VWS V14.01,2013-07-18 18:42:00,
2013-07-18 13:47:00,82.3,78.4,30.09,ENE,60,6.0,15.0,88,0.13,,---,0.13,VWS V14.01,2013-07-18 18:47:00,
2013-07-18 13:52:00,83.2,78.2,30.09,ESE,108,9.0,15.0,85,0.13,,---,0.13,VWS V14.01,2013-07-18 18:52:00,
2013-07-18 13:57:00,83.9,78.2,30.08,ENE,70,8.0,15.0,83,0.13,,---,0.13,VWS V14.01,2013-07-18 18:57:00,
2013-07-18 14:02:00,84.3,77.8,30.08,ENE,77,8.0,14.0,81,0.08,,---,0.13,VWS V14.01,2013-07-18 19:02:00,
2013-07-18 14:07:00,84.7,77.8,30.08,ENE,66,10.0,14.0,80,0.08,,---,0.13,VWS V14.01,2013-07-18 19:07:00,
2013-07-18 14:12:00,85.1,78.2,30.08,ESE,102,7.0,14.0,80,0.08,,---,0.13,VWS V14.01,2013-07-18 19:12:00,
2013-07-18 14:17:00,85.4,77.8,30.08,SW,214,6.0,17.0,78,0.08,,---,0.13,VWS V14.01,2013-07-18 19:17:00,
2013-07-18 14:22:00,85.4,77.4,30.08,ENE,70,6.0,17.0,77,0.08,,---,0.13,VWS V14.01,2013-07-18 19:22:00,
2013-07-18 14:27:00,85.6,78.0,30.08,ENE,65,17.0,17.0,78,0.08,,---,0.13,VWS V14.01,2013-07-18 19:27:00,
2013-07-18 14:33:00,85.7,77.3,30.07,East,85,11.0,17.0,76,0.08,,---,0.13,VWS V14.01,2013-07-18 19:33:00,
2013-07-18 14:38:00,85.7,77.7,30.07,ESE,103,9.0,17.0,77,0.08,,---,0.13,VWS V14.01,2013-07-18 19:38:00,
2013-07-18 14:43:00,85.9,77.9,30.07,East,80,10.0,17.0,77,0.08,,---,0.13,VWS V14.01,2013-07-18 19:43:00,
2013-07-18 14:48:00,85.8,77.8,30.07,East,86,16.0,18.0,77,0.08,,---,0.13,VWS V14.01,2013-07-18 19:48:00,
2013-07-18 14:53:00,84.9,77.7,30.07,SE,133,11.0,18.0,79,0.08,,---,0.13,VWS V14.01,2013-07-18 19:53:00,
2013-07-18 14:58:00,84.5,77.7,30.07,ESE,120,4.0,18.0,80,0.08,,---,0.13,VWS V14.01,2013-07-18 19:58:00,
2013-07-18 15:03:00,84.8,77.9,30.07,ENE,78,6.0,11.0,80,0.00,,---,0.13,VWS V14.01,2013-07-18 20:03:00,
2013-07-18 15:08:00,85.0,77.8,30.07,ESE,109,11.0,15.0,79,0.00,,---,0.13,VWS V14.01,2013-07-18 20:08:00,
2013-07-18 15:13:00,85.1,77.5,30.06,SE,124,11.0,15.0,78,0.00,,---,0.13,VWS V14.01,2013-07-18 20:13:00,
2013-07-18 15:18:00,85.2,77.2,30.06,ESE,110,14.0,15.0,77,0.00,,---,0.13,VWS V14.01,2013-07-18 20:18:00,
2013-07-18 15:23:00,85.2,77.2,30.06,East,101,11.0,15.0,77,0.00,,---,0.13,VWS V14.01,2013-07-18 20:23:00,
2013-07-18 15:28:00,84.5,76.5,30.05,ESE,108,6.0,15.0,77,0.00,,---,0.13,VWS V14.01,2013-07-18 20:28:00,
2013-07-18 15:33:00,84.3,77.1,30.05,ENE,68,4.0,15.0,79,0.00,,---,0.13,VWS V14.01,2013-07-18 20:33:00,
2013-07-18 15:38:00,83.9,75.1,30.06,ESE,104,7.0,15.0,75,0.00,,---,0.13,VWS V14.01,2013-07-18 20:38:00,
2013-07-18 15:43:00,83.9,75.5,30.06,East,93,10.0,15.0,76,0.00,,---,0.13,VWS V14.01,2013-07-18 20:43:00,
2013-07-18 15:48:00,83.8,76.2,30.06,ENE,71,6.0,15.0,78,0.00,,---,0.13,VWS V14.01,2013-07-18 20:48:00,
2013-07-18 15:53:00,83.7,76.5,30.06,East,90,5.0,15.0,79,0.00,,---,0.13,VWS V14.01,2013-07-18 20:53:00,
2013-07-18 15:58:00,83.7,76.9,30.06,ESE,108,10.0,15.0,80,0.00,,---,0.13,VWS V14.01,2013-07-18 20:58:00,
2013-07-18 16:03:00,83.6,77.2,30.05,East,89,12.0,13.0,81,0.00,,---,0.13,VWS V14.01,2013-07-18 21:03:00,
2013-07-18 16:08:00,83.6,77.2,30.05,ENE,64,9.0,13.0,81,0.00,,---,0.13,VWS V14.01,2013-07-18 21:08:00,
2013-07-18 16:13:00,83.6,77.5,30.05,ESE,117,8.0,13.0,82,0.00,,---,0.13,VWS V14.01,2013-07-18 21:13:00,
2013-07-18 16:18:00,83.5,77.4,30.04,ESE,122,5.0,15.0,82,0.00,,---,0.13,VWS V14.01,2013-07-18 21:18:00,
2013-07-18 16:23:00,83.4,77.0,30.04,SSE,153,4.0,15.0,81,0.00,,---,0.13,VWS V14.01,2013-07-18 21:23:00,
2013-07-18 16:28:00,83.4,77.3,30.04,East,85,8.0,15.0,82,0.00,,---,0.13,VWS V14.01,2013-07-18 21:28:00,
2013-07-18 16:33:00,83.5,76.7,30.04,East,92,12.0,15.0,80,0.00,,---,0.13,VWS V14.01,2013-07-18 21:33:00,
2013-07-18 16:38:00,83.5,76.7,30.04,East,99,6.0,15.0,80,0.00,,---,0.13,VWS V14.01,2013-07-18 21:38:00,
2013-07-18 16:43:00,83.6,77.2,30.04,ESE,111,7.0,15.0,81,0.00,,---,0.13,VWS V14.01,2013-07-18 21:43:00,
2013-07-18 16:48:00,83.6,77.2,30.05,ESE,110,8.0,15.0,81,0.00,,---,0.13,VWS V14.01,2013-07-18 21:48:00,
2013-07-18 16:53:00,83.5,77.1,30.05,East,98,9.0,15.0,81,0.00,,---,0.13,VWS V14.01,2013-07-18 21:53:00,
2013-07-18 16:58:00,83.4,77.3,30.05,ESE,108,6.0,15.0,82,0.00,,---,0.13,VWS V14.01,2013-07-18 21:58:00,
2013-07-18 17:03:00,83.4,76.6,30.05,ESE,113,9.0,10.0,80,0.00,,---,0.13,VWS V14.01,2013-07-18 22:03:00,
2013-07-18 17:08:00,83.3,76.1,30.05,East,95,10.0,12.0,79,0.00,,---,0.13,VWS V14.01,2013-07-18 22:08:00,
2013-07-18 17:13:00,83.5,76.3,30.04,ESE,110,5.0,12.0,79,0.00,,---,0.13,VWS V14.01,2013-07-18 22:13:00,
2013-07-18 17:19:00,83.6,77.2,30.03,ESE,122,3.0,12.0,81,0.00,,---,0.13,VWS V14.01,2013-07-18 22:19:00,
2013-07-18 17:24:00,83.5,76.3,30.03,ESE,112,9.0,12.0,79,0.00,,---,0.13,VWS V14.01,2013-07-18 22:24:00,
2013-07-18 17:29:00,83.5,76.3,30.03,East,96,11.0,12.0,79,0.00,,---,0.13,VWS V14.01,2013-07-18 22:29:00,
2013-07-18 17:34:00,83.5,75.9,30.02,SE,125,4.0,12.0,78,0.00,,---,0.13,VWS V14.01,2013-07-18 22:34:00,
2013-07-18 17:39:00,83.6,76.4,30.02,ESE,117,6.0,14.0,79,0.00,,---,0.13,VWS V14.01,2013-07-18 22:39:00,
2013-07-18 17:44:00,83.5,75.5,30.02,East,96,8.0,14.0,77,0.00,,---,0.13,VWS V14.01,2013-07-18 22:44:00,
2013-07-18 17:49:00,83.6,76.0,30.02,East,85,7.0,14.0,78,0.00,,---,0.13,VWS V14.01,2013-07-18 22:49:00,
2013-07-18 17:54:00,83.6,76.8,30.01,East,96,7.0,14.0,80,0.00,,---,0.13,VWS V14.01,2013-07-18 22:54:00,
2013-07-18 17:59:00,83.6,76.8,30.01,East,83,8.0,14.0,80,0.00,,---,0.13,VWS V14.01,2013-07-18 22:59:00,
2013-07-18 18:04:00,83.6,76.8,30.01,East,97,4.0,11.0,80,0.00,,---,0.13,VWS V14.01,2013-07-18 23:04:00,
2013-07-18 18:09:00,83.7,76.5,30.01,ESE,122,8.0,11.0,79,0.00,,---,0.13,VWS V14.01,2013-07-18 23:09:00,
2013-07-18 18:14:00,83.7,76.5,30.01,SE,129,4.0,11.0,79,0.00,,---,0.13,VWS V14.01,2013-07-18 23:14:00,
2013-07-18 18:19:00,83.8,76.6,30.01,ESE,106,5.0,11.0,79,0.00,,---,0.13,VWS V14.01,2013-07-18 23:19:00,
2013-07-18 18:24:00,83.8,76.2,30.01,ENE,65,6.0,11.0,78,0.00,,---,0.13,VWS V14.01,2013-07-18 23:24:00,
2013-07-18 18:29:00,83.8,76.6,30.00,ESE,110,5.0,11.0,79,0.00,,---,0.13,VWS V14.01,2013-07-18 23:29:00,
2013-07-18 18:34:00,83.7,76.1,30.00,ENE,72,8.0,11.0,78,0.00,,---,0.13,VWS V14.01,2013-07-18 23:34:00,
2013-07-18 18:39:00,83.7,76.5,30.00,ESE,105,4.0,11.0,79,0.00,,---,0.13,VWS V14.01,2013-07-18 23:39:00,
2013-07-18 18:44:00,83.9,76.7,30.00,East,88,7.0,11.0,79,0.00,,---,0.13,VWS V14.01,2013-07-18 23:44:00,
2013-07-18 18:49:00,83.9,76.7,30.00,ESE,107,6.0,11.0,79,0.00,,---,0.13,VWS V14.01,2013-07-18 23:49:00,
2013-07-18 18:54:00,83.9,75.9,30.00,East,97,7.0,11.0,77,0.00,,---,0.13,VWS V14.01,2013-07-18 23:54:00,
2013-07-18 18:59:00,84.0,76.4,30.00,East,79,2.0,11.0,78,0.00,,---,0.13,VWS V14.01,2013-07-18 23:59:00,
2013-07-18 19:04:00,84.1,76.5,30.00,ESE,118,13.0,13.0,78,0.00,,---,0.13,VWS V14.01,2013-07-19 00:04:00,
2013-07-18 19:09:00,83.7,76.1,30.00,East,98,5.0,13.0,78,0.00,,---,0.13,VWS V14.01,2013-07-19 00:09:00,
2013-07-18 19:14:00,83.6,76.4,30.00,East,81,3.0,13.0,79,0.00,,---,0.13,VWS V14.01,2013-07-19 00:14:00,
2013-07-18 19:19:00,83.3,76.1,30.00,ESE,108,6.0,13.0,79,0.00,,---,0.13,VWS V14.01,2013-07-19 00:19:00,
2013-07-18 19:25:00,83.2,76.8,30.00,ESE,122,4.0,13.0,81,0.00,,---,0.13,VWS V14.01,2013-07-19 00:25:00,
2013-07-18 19:30:00,83.0,76.6,30.00,East,89,10.0,13.0,81,0.00,,---,0.13,VWS V14.01,2013-07-19 00:30:00,
2013-07-18 19:35:00,83.0,76.6,30.00,SE,131,5.0,13.0,81,0.00,,---,0.13,VWS V14.01,2013-07-19 00:35:00,
2013-07-18 19:40:00,83.1,77.0,30.00,ENE,62,5.0,13.0,82,0.00,,---,0.13,VWS V14.01,2013-07-19 00:40:00,
2013-07-18 19:45:00,83.2,77.1,30.00,ESE,104,4.0,13.0,82,0.00,,---,0.13,VWS V14.01,2013-07-19 00:45:00,
2013-07-18 19:50:00,83.0,76.6,30.00,ENE,64,5.0,13.0,81,0.00,,---,0.13,VWS V14.01,2013-07-19 00:50:00,
2013-07-18 19:55:00,82.8,76.4,30.00,East,91,2.0,13.0,81,0.00,,---,0.13,VWS V14.01,2013-07-19 00:55:00,
2013-07-18 20:00:00,82.7,76.3,30.00,East,86,6.0,13.0,81,0.00,,---,0.13,VWS V14.01,2013-07-19 01:00:00,
2013-07-18 20:05:00,82.5,76.1,30.00,East,86,5.0,8.0,81,0.00,,---,0.13,VWS V14.01,2013-07-19 01:05:00,
2013-07-18 20:10:00,82.6,76.6,30.01,ESE,117,5.0,8.0,82,0.00,,---,0.13,VWS V14.01,2013-07-19 01:10:00,
2013-07-18 20:15:00,82.5,76.1,30.01,East,96,3.0,8.0,81,0.00,,---,0.13,VWS V14.01,2013-07-19 01:15:00,
2013-07-18 20:20:00,82.5,76.4,30.01,East,94,2.0,8.0,82,0.00,,---,0.13,VWS V14.01,2013-07-19 01:20:00,
2013-07-18 20:25:00,82.3,76.6,30.01,ENE,75,4.0,8.0,83,0.00,,---,0.13,VWS V14.01,2013-07-19 01:25:00,
2013-07-18 20:30:00,82.0,76.3,30.01,ENE,71,4.0,8.0,83,0.00,,---,0.13,VWS V14.01,2013-07-19 01:30:00,
2013-07-18 20:35:00,81.9,76.2,30.01,East,80,1.0,8.0,83,0.00,,---,0.13,VWS V14.01,2013-07-19 01:35:00,
2013-07-18 20:40:00,81.9,76.6,30.01,ENE,73,5.0,9.0,84,0.00,,---,0.13,VWS V14.01,2013-07-19 01:40:00,
2013-07-18 20:45:00,81.9,76.6,30.01,East,84,4.0,9.0,84,0.00,,---,0.13,VWS V14.01,2013-07-19 01:45:00,
2013-07-18 20:51:00,81.7,76.4,30.01,East,90,3.0,9.0,84,0.00,,---,0.13,VWS V14.01,2013-07-19 01:51:00,
2013-07-18 20:57:00,81.7,76.8,30.01,ENE,78,4.0,9.0,85,0.00,,---,0.13,VWS V14.01,2013-07-19 01:57:00,
2013-07-18 21:02:00,81.6,76.7,30.01,ENE,72,4.0,5.0,85,0.00,,---,0.13,VWS V14.01,2013-07-19 02:02:00,
2013-07-18 21:07:00,81.6,76.7,30.01,ENE,70,4.0,5.0,85,0.00,,---,0.13,VWS V14.01,2013-07-19 02:07:00,
2013-07-18 21:12:00,81.6,76.7,30.01,ENE,61,4.0,7.0,85,0.00,,---,0.13,VWS V14.01,2013-07-19 02:12:00,
2013-07-18 21:17:00,81.6,76.7,30.01,ENE,68,3.0,7.0,85,0.00,,---,0.13,VWS V14.01,2013-07-19 02:17:00,
2013-07-18 21:23:00,81.6,76.7,30.02,ENE,62,5.0,7.0,85,0.00,,---,0.13,VWS V14.01,2013-07-19 02:23:00,
2013-07-18 21:28:00,81.5,76.6,30.02,ENE,60,4.0,7.0,85,0.00,,---,0.13,VWS V14.01,2013-07-19 02:28:00,
2013-07-18 21:33:00,81.5,76.6,30.02,ENE,64,5.0,7.0,85,0.00,,---,0.13,VWS V14.01,2013-07-19 02:33:00,
2013-07-18 21:38:00,81.5,76.6,30.02,ENE,68,5.0,8.0,85,0.00,,---,0.13,VWS V14.01,2013-07-19 02:38:00,
2013-07-18 21:43:00,81.5,76.6,30.02,ENE,66,3.0,8.0,85,0.00,,---,0.13,VWS V14.01,2013-07-19 02:43:00,
2013-07-18 21:48:00,81.5,76.9,30.03,ENE,60,4.0,8.0,86,0.00,,---,0.13,VWS V14.01,2013-07-19 02:48:00,
2013-07-18 21:53:00,81.5,76.9,30.03,East,81,3.0,8.0,86,0.00,,---,0.13,VWS V14.01,2013-07-19 02:53:00,
2013-07-18 21:58:00,81.5,76.9,30.03,East,83,2.0,8.0,86,0.00,,---,0.13,VWS V14.01,2013-07-19 02:58:00,
2013-07-18 22:03:00,81.4,76.5,30.03,East,83,7.0,7.0,85,0.00,,---,0.13,VWS V14.01,2013-07-19 03:03:00,
2013-07-18 22:08:00,81.5,76.6,30.03,East,82,6.0,7.0,85,0.00,,---,0.13,VWS V14.01,2013-07-19 03:08:00,
2013-07-18 22:13:00,81.6,76.7,30.03,ENE,64,4.0,8.0,85,0.00,,---,0.13,VWS V14.01,2013-07-19 03:13:00,
2013-07-18 22:18:00,81.6,76.7,30.03,East,94,7.0,8.0,85,0.00,,---,0.13,VWS V14.01,2013-07-19 03:18:00,
2013-07-18 22:23:00,81.7,76.8,30.04,East,79,3.0,9.0,85,0.00,,---,0.13,VWS V14.01,2013-07-19 03:23:00,
2013-07-18 22:28:00,81.6,77.0,30.04,East,88,6.0,9.0,86,0.00,,---,0.13,VWS V14.01,2013-07-19 03:28:00,
2013-07-18 22:33:00,81.7,77.1,30.04,East,89,5.0,9.0,86,0.00,,---,0.13,VWS V14.01,2013-07-19 03:33:00,
2013-07-18 22:38:00,81.8,76.8,30.04,NE,56,5.0,9.0,85,0.00,,---,0.13,VWS V14.01,2013-07-19 03:38:00,
2013-07-18 22:43:00,81.9,76.9,30.04,ENE,75,3.0,9.0,85,0.00,,---,0.13,VWS V14.01,2013-07-19 03:43:00,
2013-07-18 22:50:00,81.8,76.8,30.05,East,88,5.0,9.0,85,0.00,,---,0.13,VWS V14.01,2013-07-19 03:50:00,
2013-07-18 22:55:00,81.8,76.5,30.04,ENE,68,6.0,9.0,84,0.00,,---,0.13,VWS V14.01,2013-07-19 03:55:00,
2013-07-18 23:00:00,81.8,76.5,30.04,ENE,77,4.0,9.0,84,0.00,,---,0.13,VWS V14.01,2013-07-19 04:00:00,
2013-07-18 23:01:00,81.8,76.5,30.04,ENE,67,3.0,9.0,84,0.00,,---,0.13,VWS V14.01,2013-07-19 04:01:00,
2013-07-18 23:02:00,81.8,76.1,30.04,ESE,105,1.0,3.0,83,0.00,,---,0.13,VWS V14.01,2013-07-19 04:02:00,
2013-07-18 23:07:00,81.9,76.6,30.05,East,92,8.0,8.0,84,0.00,,---,0.13,VWS V14.01,2013-07-19 04:07:00,
2013-07-18 23:12:00,81.9,76.6,30.05,East,99,4.0,8.0,84,0.00,,---,0.13,VWS V14.01,2013-07-19 04:12:00,
2013-07-18 23:17:00,81.9,76.6,30.05,ESE,102,7.0,8.0,84,0.00,,---,0.13,VWS V14.01,2013-07-19 04:17:00,
2013-07-18 23:22:00,81.9,76.6,30.05,East,91,7.0,8.0,84,0.00,,---,0.13,VWS V14.01,2013-07-19 04:22:00,
2013-07-18 23:27:00,81.8,76.8,30.05,East,101,5.0,8.0,85,0.00,,---,0.13,VWS V14.01,2013-07-19 04:27:00,
2013-07-18 23:32:00,81.8,76.8,30.05,ESE,109,9.0,9.0,85,0.00,,---,0.13,VWS V14.01,2013-07-19 04:32:00,
2013-07-18 23:37:00,81.9,76.9,30.05,ESE,103,7.0,9.0,85,0.00,,---,0.13,VWS V14.01,2013-07-19 04:37:00,
2013-07-18 23:42:00,81.9,76.6,30.05,ESE,113,4.0,10.0,84,0.00,,---,0.13,VWS V14.01,2013-07-19 04:42:00,
2013-07-18 23:47:00,81.9,76.6,30.06,ESE,117,8.0,10.0,84,0.00,,---,0.13,VWS V14.01,2013-07-19 04:47:00,
2013-07-18 23:52:00,81.9,76.6,30.06,ESE,111,9.0,11.0,84,0.00,,---,0.13,VWS V14.01,2013-07-19 04:52:00,
2013-07-18 23:57:00,82.1,76.4,30.06,East,88,9.0,13.0,83,0.00,,---,0.13,VWS V14.01,2013-07-19 04:57:00,